sensor_id;sensor_type;location;lat;lon;timestamp;pressure;altitude;pressure_sealevel;temperature;humidity
15674;BME280;7937;48.090;16.212;2023-04-09T00:00:03;98306.91;;;2.93;83.71
15674;BME280;7937;48.090;16.212;2023-04-09T00:03:12;98307.25;;;2.90;83.95
15674;BME280;7937;48.090;16.212;2023-04-09T00:06:14;98286.97;;;2.75;84.49
15674;BME280;7937;48.090;16.212;2023-04-09T00:09:17;98238.44;;;2.40;83.97
15674;BME280;7937;48.090;16.212;2023-04-09T00:12:19;98198.59;;;2.28;84.11
15674;BME280;7937;48.090;16.212;2023-04-09T00:15:21;98110.63;;;1.47;84.23
15674;BME280;7937;48.090;16.212;2023-04-09T00:18:32;97990.28;;;0.59;84.45
15674;BME280;7937;48.090;16.212;2023-04-09T00:21:34;98182.91;;;1.97;84.71
15674;BME280;7937;48.090;16.212;2023-04-09T00:24:36;98232.00;;;2.20;85.36
15674;BME280;7937;48.090;16.212;2023-04-09T00:27:38;98026.84;;;0.84;84.96
15674;BME280;7937;48.090;16.212;2023-04-09T00:30:41;98298.44;;;2.59;85.30
15674;BME280;7937;48.090;16.212;2023-04-09T00:33:43;97905.16;;;0.08;85.37
15674;BME280;7937;48.090;16.212;2023-04-09T00:36:45;98219.69;;;1.97;85.28
15674;BME280;7937;48.090;16.212;2023-04-09T00:39:47;98308.16;;;2.59;85.75
15674;BME280;7937;48.090;16.212;2023-04-09T00:42:49;98189.63;;;1.69;85.70
15674;BME280;7937;48.090;16.212;2023-04-09T00:45:51;98045.53;;;0.89;85.70
15674;BME280;7937;48.090;16.212;2023-04-09T00:48:53;98166.16;;;1.67;85.09
15674;BME280;7937;48.090;16.212;2023-04-09T00:51:55;97917.56;;;0.14;84.83
15674;BME280;7937;48.090;16.212;2023-04-09T00:54:59;98280.09;;;2.28;85.66
15674;BME280;7937;48.090;16.212;2023-04-09T00:58:02;98299.66;;;2.49;85.32
15674;BME280;7937;48.090;16.212;2023-04-09T01:01:04;98170.59;;;1.67;85.64
15674;BME280;7937;48.090;16.212;2023-04-09T01:04:07;97962.88;;;0.31;85.39
15674;BME280;7937;48.090;16.212;2023-04-09T01:07:31;98307.25;;;2.44;85.82
15674;BME280;7937;48.090;16.212;2023-04-09T01:10:41;98179.03;;;1.54;85.98
15674;BME280;7937;48.090;16.212;2023-04-09T01:13:54;98045.59;;;0.72;85.88
15674;BME280;7937;48.090;16.212;2023-04-09T01:17:11;98002.22;;;0.54;86.06
15674;BME280;7937;48.090;16.212;2023-04-09T01:20:39;98256.06;;;2.09;85.90
15674;BME280;7937;48.090;16.212;2023-04-09T01:23:57;98238.53;;;2.01;86.44
15674;BME280;7937;48.090;16.212;2023-04-09T01:27:09;98250.47;;;1.80;86.35
15674;BME280;7937;48.090;16.212;2023-04-09T01:30:21;98219.59;;;1.83;86.60
15674;BME280;7937;48.090;16.212;2023-04-09T01:33:24;97902.53;;;-0.48;86.13
15674;BME280;7937;48.090;16.212;2023-04-09T01:36:28;98161.31;;;1.17;86.37
15674;BME280;7937;48.090;16.212;2023-04-09T01:39:33;98249.13;;;1.85;86.65
15674;BME280;7937;48.090;16.212;2023-04-09T01:42:38;98282.84;;;2.04;86.99
15674;BME280;7937;48.090;16.212;2023-04-09T01:45:43;98059.56;;;0.65;86.61
15674;BME280;7937;48.090;16.212;2023-04-09T01:48:47;98261.44;;;1.84;86.86
15674;BME280;7937;48.090;16.212;2023-04-09T01:51:50;98076.25;;;0.72;86.86
15674;BME280;7937;48.090;16.212;2023-04-09T01:54:53;98251.97;;;1.75;86.86
15674;BME280;7937;48.090;16.212;2023-04-09T01:57:55;97953.97;;;0.01;86.76
15674;BME280;7937;48.090;16.212;2023-04-09T02:01:25;98302.78;;;2.21;86.85
15674;BME280;7937;48.090;16.212;2023-04-09T02:04:34;98229.72;;;1.63;86.90
15674;BME280;7937;48.090;16.212;2023-04-09T02:07:41;98218.13;;;1.49;86.71
15674;BME280;7937;48.090;16.212;2023-04-09T02:10:49;97944.88;;;-0.44;86.78
15674;BME280;7937;48.090;16.212;2023-04-09T02:13:57;98173.94;;;1.13;86.85
15674;BME280;7937;48.090;16.212;2023-04-09T02:17:00;98300.44;;;2.03;86.97
15674;BME280;7937;48.090;16.212;2023-04-09T02:20:02;97962.00;;;-0.17;86.65
15674;BME280;7937;48.090;16.212;2023-04-09T02:23:04;98257.09;;;1.68;86.99
15674;BME280;7937;48.090;16.212;2023-04-09T02:26:07;98049.66;;;0.36;86.71
15674;BME280;7937;48.090;16.212;2023-04-09T02:29:08;98038.50;;;0.34;86.88
15674;BME280;7937;48.090;16.212;2023-04-09T02:32:11;97964.63;;;-0.26;86.79
15674;BME280;7937;48.090;16.212;2023-04-09T02:35:13;98173.44;;;1.18;86.89
15674;BME280;7937;48.090;16.212;2023-04-09T02:38:16;98247.25;;;1.62;86.57
15674;BME280;7937;48.090;16.212;2023-04-09T02:41:18;97958.94;;;-0.29;86.98
15674;BME280;7937;48.090;16.212;2023-04-09T02:44:20;98249.53;;;1.73;87.26
15674;BME280;7937;48.090;16.212;2023-04-09T02:47:22;98288.63;;;1.99;87.21
15674;BME280;7937;48.090;16.212;2023-04-09T02:50:24;98237.81;;;1.45;87.04
15674;BME280;7937;48.090;16.212;2023-04-09T02:53:29;98287.31;;;1.95;87.64
15674;BME280;7937;48.090;16.212;2023-04-09T02:56:31;97950.59;;;-0.41;87.28
15674;BME280;7937;48.090;16.212;2023-04-09T02:59:33;98280.31;;;1.88;87.39
15674;BME280;7937;48.090;16.212;2023-04-09T03:02:36;98285.50;;;1.57;87.44
15674;BME280;7937;48.090;16.212;2023-04-09T03:05:39;98151.44;;;0.80;87.06
15674;BME280;7937;48.090;16.212;2023-04-09T03:08:41;98174.81;;;0.97;87.65
15674;BME280;7937;48.090;16.212;2023-04-09T03:11:43;98251.75;;;1.53;87.58
15674;BME280;7937;48.090;16.212;2023-04-09T03:14:45;98052.97;;;0.13;87.43
15674;BME280;7937;48.090;16.212;2023-04-09T03:17:47;98020.25;;;0.01;87.37
15674;BME280;7937;48.090;16.212;2023-04-09T03:20:49;98061.28;;;0.33;87.32
15674;BME280;7937;48.090;16.212;2023-04-09T03:23:51;98040.31;;;0.33;87.50
15674;BME280;7937;48.090;16.212;2023-04-09T03:26:54;98023.88;;;0.00;87.38
15674;BME280;7937;48.090;16.212;2023-04-09T03:29:56;98302.28;;;1.95;87.51
15674;BME280;7937;48.090;16.212;2023-04-09T03:33:06;98190.47;;;1.22;87.62
15674;BME280;7937;48.090;16.212;2023-04-09T03:36:18;98289.13;;;1.95;87.70
15674;BME280;7937;48.090;16.212;2023-04-09T03:39:30;98195.22;;;1.35;87.58
15674;BME280;7937;48.090;16.212;2023-04-09T03:42:32;98312.47;;;1.98;87.50
15674;BME280;7937;48.090;16.212;2023-04-09T03:45:36;98193.47;;;1.11;87.59
15674;BME280;7937;48.090;16.212;2023-04-09T03:48:50;98251.88;;;1.52;87.80
15674;BME280;7937;48.090;16.212;2023-04-09T03:51:53;98216.03;;;1.36;87.82
15674;BME280;7937;48.090;16.212;2023-04-09T03:54:57;98260.97;;;1.41;87.76
15674;BME280;7937;48.090;16.212;2023-04-09T03:58:00;98236.94;;;1.61;87.75
15674;BME280;7937;48.090;16.212;2023-04-09T04:01:05;98174.94;;;1.12;87.82
15674;BME280;7937;48.090;16.212;2023-04-09T04:04:15;98194.78;;;1.15;87.71
15674;BME280;7937;48.090;16.212;2023-04-09T04:07:26;98223.72;;;1.38;87.92
15674;BME280;7937;48.090;16.212;2023-04-09T04:10:33;97766.66;;;-1.46;87.57
15674;BME280;7937;48.090;16.212;2023-04-09T04:13:36;98254.69;;;1.59;87.98
15674;BME280;7937;48.090;16.212;2023-04-09T04:16:41;97917.44;;;-0.73;87.68
15674;BME280;7937;48.090;16.212;2023-04-09T04:19:45;98126.13;;;0.39;87.75
15674;BME280;7937;48.090;16.212;2023-04-09T04:22:47;98127.88;;;0.63;88.11
15674;BME280;7937;48.090;16.212;2023-04-09T04:25:50;98202.00;;;1.13;88.02
15674;BME280;7937;48.090;16.212;2023-04-09T04:29:00;98234.28;;;1.21;87.91
15674;BME280;7937;48.090;16.212;2023-04-09T04:32:22;98296.78;;;1.73;88.47
15674;BME280;7937;48.090;16.212;2023-04-09T04:35:25;98340.84;;;2.02;88.21
15674;BME280;7937;48.090;16.212;2023-04-09T04:38:31;98247.22;;;1.31;88.06
15674;BME280;7937;48.090;16.212;2023-04-09T04:41:37;98183.56;;;0.90;88.01
15674;BME280;7937;48.090;16.212;2023-04-09T04:44:47;98230.81;;;1.29;88.20
15674;BME280;7937;48.090;16.212;2023-04-09T04:48:07;98348.22;;;2.07;88.36
15674;BME280;7937;48.090;16.212;2023-04-09T04:51:09;98280.13;;;1.58;88.32
15674;BME280;7937;48.090;16.212;2023-04-09T04:54:16;98366.91;;;2.12;88.42
15674;BME280;7937;48.090;16.212;2023-04-09T04:57:25;98052.47;;;0.26;88.08
15674;BME280;7937;48.090;16.212;2023-04-09T05:00:28;98007.34;;;-0.09;87.84
15674;BME280;7937;48.090;16.212;2023-04-09T05:03:35;98051.19;;;-0.03;88.09
15674;BME280;7937;48.090;16.212;2023-04-09T05:06:49;98265.81;;;1.61;88.11
15674;BME280;7937;48.090;16.212;2023-04-09T05:09:55;98022.38;;;-0.11;87.96
15674;BME280;7937;48.090;16.212;2023-04-09T05:12:58;97785.25;;;-1.49;87.60
15674;BME280;7937;48.090;16.212;2023-04-09T05:16:06;97837.03;;;-1.12;87.87
15674;BME280;7937;48.090;16.212;2023-04-09T05:19:10;98255.97;;;1.63;88.29
15674;BME280;7937;48.090;16.212;2023-04-09T05:22:12;98305.28;;;1.84;88.83
15674;BME280;7937;48.090;16.212;2023-04-09T05:25:14;98211.47;;;1.22;88.26
15674;BME280;7937;48.090;16.212;2023-04-09T05:28:17;98322.19;;;1.89;88.13
15674;BME280;7937;48.090;16.212;2023-04-09T05:31:23;98385.16;;;2.45;88.36
15674;BME280;7937;48.090;16.212;2023-04-09T05:34:42;98321.94;;;2.07;88.52
15674;BME280;7937;48.090;16.212;2023-04-09T05:37:44;98090.97;;;0.73;88.38
15674;BME280;7937;48.090;16.212;2023-04-09T05:40:46;98086.53;;;0.73;88.27
15674;BME280;7937;48.090;16.212;2023-04-09T05:43:49;98330.72;;;2.22;88.42
15674;BME280;7937;48.090;16.212;2023-04-09T05:46:52;98067.22;;;0.74;88.35
15674;BME280;7937;48.090;16.212;2023-04-09T05:50:00;98090.53;;;0.61;88.10
15674;BME280;7937;48.090;16.212;2023-04-09T05:53:02;97944.19;;;-0.14;87.89
15674;BME280;7937;48.090;16.212;2023-04-09T05:56:15;98106.50;;;0.83;87.81
15674;BME280;7937;48.090;16.212;2023-04-09T05:59:26;98097.19;;;0.80;87.91
15674;BME280;7937;48.090;16.212;2023-04-09T06:02:28;98301.06;;;2.37;87.81
15674;BME280;7937;48.090;16.212;2023-04-09T06:05:31;98393.03;;;2.99;87.69
15674;BME280;7937;48.090;16.212;2023-04-09T06:08:33;98327.47;;;2.43;86.65
15674;BME280;7937;48.090;16.212;2023-04-09T06:11:35;98411.28;;;3.00;86.55
15674;BME280;7937;48.090;16.212;2023-04-09T06:14:37;98371.41;;;2.89;86.35
15674;BME280;7937;48.090;16.212;2023-04-09T06:17:40;98382.50;;;2.99;86.61
15674;BME280;7937;48.090;16.212;2023-04-09T06:20:42;98295.63;;;2.38;86.37
15674;BME280;7937;48.090;16.212;2023-04-09T06:23:44;98130.44;;;1.27;85.94
15674;BME280;7937;48.090;16.212;2023-04-09T06:26:46;98101.44;;;1.20;85.25
15674;BME280;7937;48.090;16.212;2023-04-09T06:29:48;98162.06;;;1.65;85.30
15674;BME280;7937;48.090;16.212;2023-04-09T06:32:50;98387.09;;;3.20;85.91
15674;BME280;7937;48.090;16.212;2023-04-09T06:35:56;97841.69;;;-0.03;84.79
15674;BME280;7937;48.090;16.212;2023-04-09T06:38:58;98234.78;;;2.41;84.73
15674;BME280;7937;48.090;16.212;2023-04-09T06:42:00;98077.78;;;1.51;83.40
15674;BME280;7937;48.090;16.212;2023-04-09T06:45:12;98312.84;;;3.24;82.53
15674;BME280;7937;48.090;16.212;2023-04-09T06:48:14;98051.19;;;1.54;82.94
15674;BME280;7937;48.090;16.212;2023-04-09T06:51:16;98077.75;;;1.60;82.44
15674;BME280;7937;48.090;16.212;2023-04-09T06:54:19;98364.94;;;3.52;82.30
15674;BME280;7937;48.090;16.212;2023-04-09T06:57:21;98326.03;;;3.39;83.35
15674;BME280;7937;48.090;16.212;2023-04-09T07:00:23;98174.22;;;2.35;82.10
15674;BME280;7937;48.090;16.212;2023-04-09T07:03:28;98405.31;;;3.82;81.69
15674;BME280;7937;48.090;16.212;2023-04-09T07:06:30;98131.97;;;1.98;82.25
15674;BME280;7937;48.090;16.212;2023-04-09T07:09:32;98376.00;;;3.47;82.32
15674;BME280;7937;48.090;16.212;2023-04-09T07:12:34;98413.84;;;3.99;81.95
15674;BME280;7937;48.090;16.212;2023-04-09T07:15:36;98430.59;;;4.06;82.09
15674;BME280;7937;48.090;16.212;2023-04-09T07:18:42;97950.06;;;0.98;79.61
15674;BME280;7937;48.090;16.212;2023-04-09T07:21:44;98407.22;;;4.03;79.53
15674;BME280;7937;48.090;16.212;2023-04-09T07:24:46;98173.72;;;2.54;78.56
15674;BME280;7937;48.090;16.212;2023-04-09T07:27:55;98366.84;;;3.58;80.57
15674;BME280;7937;48.090;16.212;2023-04-09T07:30:59;98362.03;;;3.47;80.26
15674;BME280;7937;48.090;16.212;2023-04-09T07:34:03;98416.69;;;4.12;81.58
15674;BME280;7937;48.090;16.212;2023-04-09T07:37:05;98137.69;;;2.40;80.43
15674;BME280;7937;48.090;16.212;2023-04-09T07:40:08;98205.63;;;2.89;79.17
15674;BME280;7937;48.090;16.212;2023-04-09T07:43:10;98438.41;;;4.44;78.29
15674;BME280;7937;48.090;16.212;2023-04-09T07:46:18;98379.69;;;3.91;77.78
15674;BME280;7937;48.090;16.212;2023-04-09T07:49:20;98382.59;;;3.81;78.34
15674;BME280;7937;48.090;16.212;2023-04-09T07:52:23;98401.50;;;4.14;78.12
15674;BME280;7937;48.090;16.212;2023-04-09T07:55:25;98267.75;;;3.27;78.74
15674;BME280;7937;48.090;16.212;2023-04-09T07:58:27;98342.41;;;3.79;78.11
15674;BME280;7937;48.090;16.212;2023-04-09T08:01:29;98380.44;;;3.99;79.42
15674;BME280;7937;48.090;16.212;2023-04-09T08:04:31;98388.41;;;4.06;78.55
15674;BME280;7937;48.090;16.212;2023-04-09T08:07:34;98323.00;;;3.65;78.10
15674;BME280;7937;48.090;16.212;2023-04-09T08:10:36;98319.22;;;3.89;77.96
15674;BME280;7937;48.090;16.212;2023-04-09T08:13:38;98386.47;;;4.44;76.87
15674;BME280;7937;48.090;16.212;2023-04-09T08:16:42;98467.75;;;5.06;77.19
15674;BME280;7937;48.090;16.212;2023-04-09T08:19:45;98354.88;;;4.51;76.41
15674;BME280;7937;48.090;16.212;2023-04-09T08:22:47;98127.97;;;2.93;73.07
15674;BME280;7937;48.090;16.212;2023-04-09T08:25:49;98181.41;;;3.38;73.99
15674;BME280;7937;48.090;16.212;2023-04-09T08:28:51;98121.75;;;3.15;74.23
15674;BME280;7937;48.090;16.212;2023-04-09T08:31:53;98464.94;;;5.29;73.54
15674;BME280;7937;48.090;16.212;2023-04-09T08:34:56;98441.59;;;5.11;73.82
15674;BME280;7937;48.090;16.212;2023-04-09T08:37:58;98386.75;;;4.71;75.17
15674;BME280;7937;48.090;16.212;2023-04-09T08:41:00;98271.97;;;3.87;75.34
15674;BME280;7937;48.090;16.212;2023-04-09T08:44:02;98244.38;;;3.69;75.58
15674;BME280;7937;48.090;16.212;2023-04-09T08:47:08;98255.38;;;3.72;77.21
15674;BME280;7937;48.090;16.212;2023-04-09T08:50:13;98070.16;;;2.55;77.20
15674;BME280;7937;48.090;16.212;2023-04-09T08:53:16;98050.31;;;2.38;77.14
15674;BME280;7937;48.090;16.212;2023-04-09T08:56:20;98355.28;;;4.18;79.61
15674;BME280;7937;48.090;16.212;2023-04-09T08:59:23;98133.75;;;3.03;77.35
15674;BME280;7937;48.090;16.212;2023-04-09T09:02:25;98056.94;;;2.48;77.63
15674;BME280;7937;48.090;16.212;2023-04-09T09:08:41;98249.72;;;3.90;76.30
15674;BME280;7937;48.090;16.212;2023-04-09T09:11:45;98240.84;;;3.76;78.34
15674;BME280;7937;48.090;16.212;2023-04-09T09:14:47;98037.06;;;2.61;78.11
15674;BME280;7937;48.090;16.212;2023-04-09T09:17:54;98243.38;;;3.84;77.25
15674;BME280;7937;48.090;16.212;2023-04-09T09:24:16;98127.94;;;3.58;77.82
15674;BME280;7937;48.090;16.212;2023-04-09T09:27:35;98377.97;;;5.28;75.59
15674;BME280;7937;48.090;16.212;2023-04-09T09:30:40;98409.31;;;5.59;75.16
15674;BME280;7937;48.090;16.212;2023-04-09T09:33:42;98338.72;;;5.25;73.65
15674;BME280;7937;48.090;16.212;2023-04-09T09:36:45;98274.97;;;4.78;72.90
15674;BME280;7937;48.090;16.212;2023-04-09T09:39:47;98232.25;;;4.68;70.72
15674;BME280;7937;48.090;16.212;2023-04-09T09:42:55;98208.75;;;4.52;70.58
15674;BME280;7937;48.090;16.212;2023-04-09T09:45:59;98302.19;;;5.07;73.14
15674;BME280;7937;48.090;16.212;2023-04-09T09:49:02;98439.50;;;5.99;72.30
15674;BME280;7937;48.090;16.212;2023-04-09T09:52:08;98260.44;;;4.89;72.71
15674;BME280;7937;48.090;16.212;2023-04-09T09:55:14;98413.69;;;5.73;72.27
15674;BME280;7937;48.090;16.212;2023-04-09T09:58:22;98220.13;;;4.52;72.89
15674;BME280;7937;48.090;16.212;2023-04-09T10:01:26;98203.44;;;4.24;74.93
15674;BME280;7937;48.090;16.212;2023-04-09T10:04:32;98215.84;;;4.08;75.33
15674;BME280;7937;48.090;16.212;2023-04-09T10:07:36;98243.41;;;4.06;77.33
15674;BME280;7937;48.090;16.212;2023-04-09T10:10:39;98268.56;;;4.08;77.14
15674;BME280;7937;48.090;16.212;2023-04-09T10:13:52;98489.72;;;5.28;77.67
15674;BME280;7937;48.090;16.212;2023-04-09T10:16:57;98427.56;;;4.89;78.58
15674;BME280;7937;48.090;16.212;2023-04-09T10:20:31;98344.63;;;4.41;79.93
15674;BME280;7937;48.090;16.212;2023-04-09T10:23:39;98476.50;;;5.50;79.17
15674;BME280;7937;48.090;16.212;2023-04-09T10:26:42;98417.03;;;5.32;79.98
15674;BME280;7937;48.090;16.212;2023-04-09T10:29:47;98057.09;;;3.06;78.75
15674;BME280;7937;48.090;16.212;2023-04-09T10:32:51;98375.72;;;5.53;77.91
15674;BME280;7937;48.090;16.212;2023-04-09T10:36:19;98213.41;;;4.78;75.71
15674;BME280;7937;48.090;16.212;2023-04-09T10:39:29;98255.97;;;5.17;75.78
15674;BME280;7937;48.090;16.212;2023-04-09T10:42:35;98229.03;;;5.29;75.54
15674;BME280;7937;48.090;16.212;2023-04-09T10:45:40;98409.06;;;6.58;75.35
15674;BME280;7937;48.090;16.212;2023-04-09T10:48:42;98413.34;;;6.59;74.30
15674;BME280;7937;48.090;16.212;2023-04-09T10:51:50;98409.28;;;6.56;72.18
15674;BME280;7937;48.090;16.212;2023-04-09T10:54:53;98364.72;;;6.12;72.51
15674;BME280;7937;48.090;16.212;2023-04-09T10:57:55;98225.38;;;5.30;72.46
15674;BME280;7937;48.090;16.212;2023-04-09T11:01:00;98165.16;;;4.84;72.92
15674;BME280;7937;48.090;16.212;2023-04-09T11:04:15;98231.19;;;5.18;70.82
15674;BME280;7937;48.090;16.212;2023-04-09T11:07:23;98454.53;;;6.75;71.63
15674;BME280;7937;48.090;16.212;2023-04-09T11:10:25;98427.22;;;6.61;72.24
15674;BME280;7937;48.090;16.212;2023-04-09T11:13:29;98144.09;;;4.90;71.05
15674;BME280;7937;48.090;16.212;2023-04-09T11:16:32;98257.91;;;5.72;71.97
15674;BME280;7937;48.090;16.212;2023-04-09T11:19:34;98273.53;;;6.01;70.09
15674;BME280;7937;48.090;16.212;2023-04-09T11:22:37;98197.88;;;5.65;68.09
15674;BME280;7937;48.090;16.212;2023-04-09T11:25:39;98201.22;;;5.33;67.91
15674;BME280;7937;48.090;16.212;2023-04-09T11:28:42;98414.06;;;6.81;68.33
15674;BME280;7937;48.090;16.212;2023-04-09T11:31:44;98444.28;;;7.06;68.37
15674;BME280;7937;48.090;16.212;2023-04-09T11:34:47;98189.66;;;5.40;71.60
15674;BME280;7937;48.090;16.212;2023-04-09T11:37:49;98274.84;;;5.90;72.99
15674;BME280;7937;48.090;16.212;2023-04-09T11:40:56;98339.31;;;6.24;72.94
15674;BME280;7937;48.090;16.212;2023-04-09T11:44:01;98388.47;;;6.46;73.10
15674;BME280;7937;48.090;16.212;2023-04-09T11:47:03;98379.44;;;6.28;73.21
15674;BME280;7937;48.090;16.212;2023-04-09T11:50:07;97995.63;;;3.56;74.75
15674;BME280;7937;48.090;16.212;2023-04-09T11:53:20;98098.13;;;4.22;76.11
15674;BME280;7937;48.090;16.212;2023-04-09T11:56:22;98415.34;;;6.09;76.91
15674;BME280;7937;48.090;16.212;2023-04-09T11:59:26;98425.84;;;6.30;76.85
15674;BME280;7937;48.090;16.212;2023-04-09T12:02:28;98005.44;;;3.69;76.58
15674;BME280;7937;48.090;16.212;2023-04-09T12:05:33;98367.13;;;6.07;76.92
15674;BME280;7937;48.090;16.212;2023-04-09T12:08:35;98348.41;;;5.74;76.95
15674;BME280;7937;48.090;16.212;2023-04-09T12:11:41;98274.25;;;5.19;77.20
15674;BME280;7937;48.090;16.212;2023-04-09T12:14:45;98371.19;;;5.75;77.41
15674;BME280;7937;48.090;16.212;2023-04-09T12:17:53;98176.47;;;4.50;76.96
15674;BME280;7937;48.090;16.212;2023-04-09T12:20:56;98442.47;;;5.89;72.99
15674;BME280;7937;48.090;16.212;2023-04-09T12:23:58;98199.16;;;4.01;74.86
15674;BME280;7937;48.090;16.212;2023-04-09T12:27:00;98096.34;;;3.22;75.82
15674;BME280;7937;48.090;16.212;2023-04-09T12:30:02;98301.16;;;4.37;75.22
15674;BME280;7937;48.090;16.212;2023-04-09T12:33:05;98391.31;;;4.98;77.43
15674;BME280;7937;48.090;16.212;2023-04-09T12:36:10;98221.72;;;3.89;78.15
15674;BME280;7937;48.090;16.212;2023-04-09T12:39:12;98346.28;;;4.85;78.66
15674;BME280;7937;48.090;16.212;2023-04-09T12:42:14;98441.94;;;5.73;78.34
15674;BME280;7937;48.090;16.212;2023-04-09T12:45:18;98239.66;;;4.58;74.88
15674;BME280;7937;48.090;16.212;2023-04-09T12:48:20;98397.00;;;5.73;75.37
15674;BME280;7937;48.090;16.212;2023-04-09T12:51:22;98161.03;;;4.47;75.03
15674;BME280;7937;48.090;16.212;2023-04-09T12:54:24;98315.56;;;5.61;74.83
15674;BME280;7937;48.090;16.212;2023-04-09T12:57:27;98042.31;;;4.19;74.47
15674;BME280;7937;48.090;16.212;2023-04-09T13:00:29;98370.53;;;6.42;72.40
15674;BME280;7937;48.090;16.212;2023-04-09T13:03:32;98306.13;;;5.80;73.26
15674;BME280;7937;48.090;16.212;2023-04-09T13:06:34;98462.16;;;6.91;73.26
15674;BME280;7937;48.090;16.212;2023-04-09T13:09:36;98457.03;;;6.89;73.62
15674;BME280;7937;48.090;16.212;2023-04-09T13:12:38;98201.56;;;5.23;73.56
15674;BME280;7937;48.090;16.212;2023-04-09T13:15:41;98409.34;;;6.83;75.25
15674;BME280;7937;48.090;16.212;2023-04-09T13:18:47;98433.88;;;7.05;74.97
15674;BME280;7937;48.090;16.212;2023-04-09T13:21:49;98208.22;;;5.54;73.51
15674;BME280;7937;48.090;16.212;2023-04-09T13:24:51;98184.13;;;5.29;71.91
15674;BME280;7937;48.090;16.212;2023-04-09T13:27:53;98251.88;;;5.91;73.19
15674;BME280;7937;48.090;16.212;2023-04-09T13:30:55;98194.44;;;5.65;70.94
15674;BME280;7937;48.090;16.212;2023-04-09T13:33:57;98105.56;;;5.03;68.18
15674;BME280;7937;48.090;16.212;2023-04-09T13:37:00;98195.03;;;5.60;69.80
15674;BME280;7937;48.090;16.212;2023-04-09T13:40:03;98166.50;;;5.42;69.86
15674;BME280;7937;48.090;16.212;2023-04-09T13:43:05;98294.34;;;6.24;69.95
15674;BME280;7937;48.090;16.212;2023-04-09T13:46:07;98186.34;;;5.73;71.61
15674;BME280;7937;48.090;16.212;2023-04-09T13:49:09;98239.38;;;6.19;72.40
15674;BME280;7937;48.090;16.212;2023-04-09T13:52:13;98333.72;;;6.54;72.69
15674;BME280;7937;48.090;16.212;2023-04-09T13:55:16;98306.81;;;6.50;73.38
15674;BME280;7937;48.090;16.212;2023-04-09T13:58:18;98373.53;;;6.87;74.06
15674;BME280;7937;48.090;16.212;2023-04-09T14:01:20;98283.75;;;6.24;73.54
15674;BME280;7937;48.090;16.212;2023-04-09T14:04:23;98313.94;;;6.36;73.66
15674;BME280;7937;48.090;16.212;2023-04-09T14:07:25;98399.16;;;6.80;74.46
15674;BME280;7937;48.090;16.212;2023-04-09T14:10:27;98305.19;;;6.42;75.80
15674;BME280;7937;48.090;16.212;2023-04-09T14:13:29;98167.91;;;5.45;76.41
15674;BME280;7937;48.090;16.212;2023-04-09T14:16:32;98173.50;;;5.63;77.06
15674;BME280;7937;48.090;16.212;2023-04-09T14:19:34;98275.44;;;6.27;77.02
15674;BME280;7937;48.090;16.212;2023-04-09T14:22:36;98298.50;;;6.60;77.37
15674;BME280;7937;48.090;16.212;2023-04-09T14:25:38;98330.31;;;6.73;76.59
15674;BME280;7937;48.090;16.212;2023-04-09T14:28:40;98419.84;;;7.31;76.43
15674;BME280;7937;48.090;16.212;2023-04-09T14:31:43;98382.31;;;7.14;75.50
15674;BME280;7937;48.090;16.212;2023-04-09T14:34:48;98374.78;;;7.11;75.71
15674;BME280;7937;48.090;16.212;2023-04-09T14:37:50;98106.28;;;5.31;75.50
15674;BME280;7937;48.090;16.212;2023-04-09T14:40:52;98420.25;;;7.47;75.69
15674;BME280;7937;48.090;16.212;2023-04-09T14:43:54;98362.94;;;7.13;75.39
15674;BME280;7937;48.090;16.212;2023-04-09T14:46:56;98344.38;;;6.80;75.76
15674;BME280;7937;48.090;16.212;2023-04-09T14:49:58;98439.22;;;7.31;75.88
15674;BME280;7937;48.090;16.212;2023-04-09T14:53:02;98205.59;;;6.08;76.64
15674;BME280;7937;48.090;16.212;2023-04-09T14:56:05;98165.56;;;5.70;76.23
15674;BME280;7937;48.090;16.212;2023-04-09T14:59:07;98363.34;;;6.90;76.94
15674;BME280;7937;48.090;16.212;2023-04-09T15:02:09;98342.31;;;6.69;76.38
15674;BME280;7937;48.090;16.212;2023-04-09T15:05:12;98334.78;;;6.66;75.11
15674;BME280;7937;48.090;16.212;2023-04-09T15:08:14;98193.09;;;5.82;75.72
15674;BME280;7937;48.090;16.212;2023-04-09T15:11:19;98405.56;;;7.12;74.75
15674;BME280;7937;48.090;16.212;2023-04-09T15:14:23;98404.31;;;7.01;74.96
15674;BME280;7937;48.090;16.212;2023-04-09T15:17:25;98293.16;;;6.27;75.78
15674;BME280;7937;48.090;16.212;2023-04-09T15:20:28;98131.41;;;5.14;75.72
15674;BME280;7937;48.090;16.212;2023-04-09T15:23:30;98420.00;;;7.09;74.61
15674;BME280;7937;48.090;16.212;2023-04-09T15:26:33;98374.72;;;6.71;74.37
15674;BME280;7937;48.090;16.212;2023-04-09T15:29:35;98095.31;;;4.86;73.70
15674;BME280;7937;48.090;16.212;2023-04-09T15:32:37;98329.09;;;6.14;73.57
15674;BME280;7937;48.090;16.212;2023-04-09T15:35:39;98359.78;;;6.02;72.97
15674;BME280;7937;48.090;16.212;2023-04-09T15:38:41;98161.75;;;4.62;72.95
15674;BME280;7937;48.090;16.212;2023-04-09T15:41:43;98118.47;;;4.28;72.77
15674;BME280;7937;48.090;16.212;2023-04-09T15:44:46;98358.13;;;5.66;74.07
15674;BME280;7937;48.090;16.212;2023-04-09T15:47:48;98394.84;;;5.55;74.56
15674;BME280;7937;48.090;16.212;2023-04-09T15:50:50;98299.41;;;5.15;74.43
15674;BME280;7937;48.090;16.212;2023-04-09T15:53:52;98301.38;;;5.06;74.21
15674;BME280;7937;48.090;16.212;2023-04-09T15:56:54;98202.78;;;4.43;74.63
15674;BME280;7937;48.090;16.212;2023-04-09T15:59:56;98121.59;;;3.53;75.08
15674;BME280;7937;48.090;16.212;2023-04-09T16:02:59;98374.31;;;5.29;75.14
15674;BME280;7937;48.090;16.212;2023-04-09T16:06:03;98171.28;;;4.13;74.55
15674;BME280;7937;48.090;16.212;2023-04-09T16:09:08;98115.72;;;3.72;74.21
15674;BME280;7937;48.090;16.212;2023-04-09T16:12:10;98325.78;;;4.87;74.16
15674;BME280;7937;48.090;16.212;2023-04-09T16:15:12;98447.56;;;5.63;75.68
15674;BME280;7937;48.090;16.212;2023-04-09T16:18:14;98289.16;;;4.56;75.64
15674;BME280;7937;48.090;16.212;2023-04-09T16:21:16;98369.66;;;5.09;75.36
15674;BME280;7937;48.090;16.212;2023-04-09T16:24:18;98351.69;;;4.98;75.42
15674;BME280;7937;48.090;16.212;2023-04-09T16:27:20;98146.34;;;3.73;75.12
15674;BME280;7937;48.090;16.212;2023-04-09T16:30:22;98455.50;;;5.63;74.83
15674;BME280;7937;48.090;16.212;2023-04-09T16:33:25;98155.16;;;3.80;74.42